sensor_id;sensor_type;location;lat;lon;timestamp;temperature;humidity
64012;DHT22;50211;52.768;12.124;2022-12-31T00:00:35;9.80;99.90
64012;DHT22;50211;52.768;12.124;2022-12-31T00:03:03;9.70;99.90
64012;DHT22;50211;52.768;12.124;2022-12-31T00:05:33;9.70;99.90
64012;DHT22;50211;52.768;12.124;2022-12-31T00:07:59;9.70;99.90
64012;DHT22;50211;52.768;12.124;2022-12-31T00:10:26;9.70;99.90
64012;DHT22;50211;52.768;12.124;2022-12-31T00:12:52;9.70;99.90
64012;DHT22;50211;52.768;12.124;2022-12-31T00:15:17;9.70;99.90
64012;DHT22;50211;52.768;12.124;2022-12-31T00:17:43;9.70;99.90
64012;DHT22;50211;52.768;12.124;2022-12-31T00:20:09;9.70;99.90
64012;DHT22;50211;52.768;12.124;2022-12-31T00:22:34;9.70;99.90
64012;DHT22;50211;52.768;12.124;2022-12-31T00:25:00;9.70;99.90
64012;DHT22;50211;52.768;12.124;2022-12-31T00:27:25;9.70;99.90
64012;DHT22;50211;52.768;12.124;2022-12-31T00:29:54;9.80;99.90
64012;DHT22;50211;52.768;12.124;2022-12-31T00:32:19;9.80;99.90
64012;DHT22;50211;52.768;12.124;2022-12-31T00:34:44;9.80;99.90
64012;DHT22;50211;52.768;12.124;2022-12-31T00:37:10;9.80;99.90
64012;DHT22;50211;52.768;12.124;2022-12-31T00:39:35;9.80;99.90
64012;DHT22;50211;52.768;12.124;2022-12-31T00:42:01;9.90;99.90
64012;DHT22;50211;52.768;12.124;2022-12-31T00:44:26;9.90;99.90
64012;DHT22;50211;52.768;12.124;2022-12-31T00:46:52;9.90;99.90
64012;DHT22;50211;52.768;12.124;2022-12-31T00:49:18;10.00;99.90
64012;DHT22;50211;52.768;12.124;2022-12-31T00:51:43;9.90;99.90
64012;DHT22;50211;52.768;12.124;2022-12-31T00:54:12;9.90;99.90
64012;DHT22;50211;52.768;12.124;2022-12-31T00:56:38;9.80;99.90
64012;DHT22;50211;52.768;12.124;2022-12-31T00:59:03;9.90;99.90
64012;DHT22;50211;52.768;12.124;2022-12-31T01:01:35;9.90;99.90
64012;DHT22;50211;52.768;12.124;2022-12-31T01:04:07;10.00;99.90
64012;DHT22;50211;52.768;12.124;2022-12-31T01:06:33;10.00;99.90
64012;DHT22;50211;52.768;12.124;2022-12-31T01:08:58;10.10;99.90
64012;DHT22;50211;52.768;12.124;2022-12-31T01:11:24;10.00;99.90
64012;DHT22;50211;52.768;12.124;2022-12-31T01:14:03;10.10;99.90
64012;DHT22;50211;52.768;12.124;2022-12-31T01:16:31;10.10;99.90
64012;DHT22;50211;52.768;12.124;2022-12-31T01:18:59;10.10;99.90
64012;DHT22;50211;52.768;12.124;2022-12-31T01:21:26;10.10;99.90
64012;DHT22;50211;52.768;12.124;2022-12-31T01:23:51;10.10;99.90
64012;DHT22;50211;52.768;12.124;2022-12-31T01:26:17;10.10;99.90
64012;DHT22;50211;52.768;12.124;2022-12-31T01:28:44;10.10;99.90
64012;DHT22;50211;52.768;12.124;2022-12-31T01:31:12;10.10;99.90
64012;DHT22;50211;52.768;12.124;2022-12-31T01:33:38;10.10;99.90
64012;DHT22;50211;52.768;12.124;2022-12-31T01:36:06;10.10;99.90
64012;DHT22;50211;52.768;12.124;2022-12-31T01:38:32;10.20;99.90
64012;DHT22;50211;52.768;12.124;2022-12-31T01:40:58;10.10;99.90
64012;DHT22;50211;52.768;12.124;2022-12-31T01:43:42;10.20;99.90
64012;DHT22;50211;52.768;12.124;2022-12-31T01:46:09;10.10;99.90
64012;DHT22;50211;52.768;12.124;2022-12-31T01:48:36;10.10;99.90
64012;DHT22;50211;52.768;12.124;2022-12-31T01:51:01;10.20;99.90
64012;DHT22;50211;52.768;12.124;2022-12-31T01:53:27;10.30;99.90
64012;DHT22;50211;52.768;12.124;2022-12-31T01:55:56;10.30;99.90
64012;DHT22;50211;52.768;12.124;2022-12-31T01:58:32;10.30;99.90
64012;DHT22;50211;52.768;12.124;2022-12-31T02:00:58;10.30;99.90
64012;DHT22;50211;52.768;12.124;2022-12-31T02:03:25;10.40;99.90
64012;DHT22;50211;52.768;12.124;2022-12-31T02:06:15;10.40;99.90
64012;DHT22;50211;52.768;12.124;2022-12-31T02:08:42;10.40;99.90
64012;DHT22;50211;52.768;12.124;2022-12-31T02:11:25;10.40;99.90
64012;DHT22;50211;52.768;12.124;2022-12-31T02:13:53;10.40;99.90
64012;DHT22;50211;52.768;12.124;2022-12-31T02:22:21;10.40;99.90
64012;DHT22;50211;52.768;12.124;2022-12-31T02:28:01;10.50;99.90
64012;DHT22;50211;52.768;12.124;2022-12-31T02:30:32;10.60;99.90
64012;DHT22;50211;52.768;12.124;2022-12-31T02:33:06;10.50;99.90
64012;DHT22;50211;52.768;12.124;2022-12-31T02:35:46;10.50;99.90
64012;DHT22;50211;52.768;12.124;2022-12-31T02:38:18;10.50;99.90
64012;DHT22;50211;52.768;12.124;2022-12-31T02:40:45;10.60;99.90
64012;DHT22;50211;52.768;12.124;2022-12-31T02:43:12;10.60;99.90
64012;DHT22;50211;52.768;12.124;2022-12-31T02:45:41;10.50;99.90
64012;DHT22;50211;52.768;12.124;2022-12-31T02:48:25;10.60;99.90
64012;DHT22;50211;52.768;12.124;2022-12-31T02:51:29;10.70;99.90
64012;DHT22;50211;52.768;12.124;2022-12-31T02:57:17;10.70;99.90
64012;DHT22;50211;52.768;12.124;2022-12-31T02:59:57;10.70;99.90
64012;DHT22;50211;52.768;12.124;2022-12-31T03:02:44;10.80;99.90
64012;DHT22;50211;52.768;12.124;2022-12-31T03:05:13;10.80;99.90
64012;DHT22;50211;52.768;12.124;2022-12-31T03:07:41;10.90;99.90
64012;DHT22;50211;52.768;12.124;2022-12-31T03:10:07;10.90;99.90
64012;DHT22;50211;52.768;12.124;2022-12-31T03:12:34;10.90;99.90
64012;DHT22;50211;52.768;12.124;2022-12-31T03:15:23;10.90;99.90
64012;DHT22;50211;52.768;12.124;2022-12-31T03:18:10;10.80;99.90
64012;DHT22;50211;52.768;12.124;2022-12-31T03:23:36;10.80;99.90
64012;DHT22;50211;52.768;12.124;2022-12-31T03:26:04;10.80;99.90
64012;DHT22;50211;52.768;12.124;2022-12-31T03:28:37;10.70;99.90
64012;DHT22;50211;52.768;12.124;2022-12-31T03:31:03;10.70;99.90
64012;DHT22;50211;52.768;12.124;2022-12-31T03:33:34;10.60;99.90
64012;DHT22;50211;52.768;12.124;2022-12-31T03:36:03;10.60;99.90
64012;DHT22;50211;52.768;12.124;2022-12-31T03:38:29;10.60;99.90
64012;DHT22;50211;52.768;12.124;2022-12-31T03:40:55;10.60;99.90
64012;DHT22;50211;52.768;12.124;2022-12-31T03:43:20;10.60;99.90
64012;DHT22;50211;52.768;12.124;2022-12-31T03:45:52;10.60;99.90
64012;DHT22;50211;52.768;12.124;2022-12-31T03:48:20;10.70;99.90
64012;DHT22;50211;52.768;12.124;2022-12-31T03:50:45;10.60;99.90
64012;DHT22;50211;52.768;12.124;2022-12-31T03:53:11;10.70;99.90
64012;DHT22;50211;52.768;12.124;2022-12-31T03:55:37;10.70;99.90
64012;DHT22;50211;52.768;12.124;2022-12-31T03:58:03;10.70;99.90
64012;DHT22;50211;52.768;12.124;2022-12-31T04:00:28;10.70;99.90
64012;DHT22;50211;52.768;12.124;2022-12-31T04:02:54;10.70;99.90
64012;DHT22;50211;52.768;12.124;2022-12-31T04:05:20;10.80;99.90
64012;DHT22;50211;52.768;12.124;2022-12-31T04:07:46;10.80;99.90
64012;DHT22;50211;52.768;12.124;2022-12-31T04:10:14;10.90;99.90
64012;DHT22;50211;52.768;12.124;2022-12-31T04:12:39;11.00;99.90
64012;DHT22;50211;52.768;12.124;2022-12-31T04:15:06;11.00;99.90
64012;DHT22;50211;52.768;12.124;2022-12-31T04:17:32;11.00;99.90
64012;DHT22;50211;52.768;12.124;2022-12-31T04:19:57;11.00;99.90
64012;DHT22;50211;52.768;12.124;2022-12-31T04:22:23;11.00;99.90
64012;DHT22;50211;52.768;12.124;2022-12-31T04:24:48;11.00;99.90
64012;DHT22;50211;52.768;12.124;2022-12-31T04:27:14;11.10;99.90
64012;DHT22;50211;52.768;12.124;2022-12-31T04:29:40;11.10;99.90
64012;DHT22;50211;52.768;12.124;2022-12-31T04:32:06;11.10;99.90
64012;DHT22;50211;52.768;12.124;2022-12-31T04:34:32;11.10;99.90
64012;DHT22;50211;52.768;12.124;2022-12-31T04:36:58;11.10;99.90
64012;DHT22;50211;52.768;12.124;2022-12-31T04:39:24;11.10;99.90
64012;DHT22;50211;52.768;12.124;2022-12-31T04:41:50;11.00;99.90
64012;DHT22;50211;52.768;12.124;2022-12-31T04:44:16;11.00;99.90
64012;DHT22;50211;52.768;12.124;2022-12-31T04:46:42;11.00;99.90
64012;DHT22;50211;52.768;12.124;2022-12-31T04:49:08;11.00;99.90
64012;DHT22;50211;52.768;12.124;2022-12-31T04:51:33;11.00;99.90
64012;DHT22;50211;52.768;12.124;2022-12-31T04:53:59;11.00;99.90
64012;DHT22;50211;52.768;12.124;2022-12-31T04:56:26;11.00;99.90
64012;DHT22;50211;52.768;12.124;2022-12-31T04:58:52;11.00;99.90
64012;DHT22;50211;52.768;12.124;2022-12-31T05:01:17;11.00;99.90
64012;DHT22;50211;52.768;12.124;2022-12-31T05:03:43;11.00;99.90
64012;DHT22;50211;52.768;12.124;2022-12-31T05:06:14;11.00;99.90
64012;DHT22;50211;52.768;12.124;2022-12-31T05:08:40;11.00;99.90
64012;DHT22;50211;52.768;12.124;2022-12-31T05:11:06;11.00;99.90
64012;DHT22;50211;52.768;12.124;2022-12-31T05:13:31;11.00;99.90
64012;DHT22;50211;52.768;12.124;2022-12-31T05:15:57;11.00;99.90
64012;DHT22;50211;52.768;12.124;2022-12-31T05:18:22;11.00;99.90
64012;DHT22;50211;52.768;12.124;2022-12-31T05:20:48;11.10;99.90
64012;DHT22;50211;52.768;12.124;2022-12-31T05:23:15;11.10;99.90
64012;DHT22;50211;52.768;12.124;2022-12-31T05:25:41;11.10;99.90
64012;DHT22;50211;52.768;12.124;2022-12-31T05:28:07;11.10;99.90
64012;DHT22;50211;52.768;12.124;2022-12-31T05:30:32;11.20;99.90
64012;DHT22;50211;52.768;12.124;2022-12-31T05:32:58;11.20;99.90
64012;DHT22;50211;52.768;12.124;2022-12-31T05:35:24;11.20;99.90
64012;DHT22;50211;52.768;12.124;2022-12-31T05:37:49;11.30;99.90
64012;DHT22;50211;52.768;12.124;2022-12-31T05:40:15;11.40;99.90
64012;DHT22;50211;52.768;12.124;2022-12-31T05:42:40;11.40;99.90
64012;DHT22;50211;52.768;12.124;2022-12-31T05:45:06;11.40;99.90
64012;DHT22;50211;52.768;12.124;2022-12-31T05:47:32;11.40;99.90
64012;DHT22;50211;52.768;12.124;2022-12-31T05:49:57;11.50;99.90
64012;DHT22;50211;52.768;12.124;2022-12-31T05:52:23;11.50;99.90
64012;DHT22;50211;52.768;12.124;2022-12-31T05:54:49;11.50;99.90
64012;DHT22;50211;52.768;12.124;2022-12-31T05:57:14;11.60;99.90
64012;DHT22;50211;52.768;12.124;2022-12-31T05:59:40;11.60;99.90
64012;DHT22;50211;52.768;12.124;2022-12-31T06:02:05;11.60;99.90
64012;DHT22;50211;52.768;12.124;2022-12-31T06:04:31;11.60;99.90
64012;DHT22;50211;52.768;12.124;2022-12-31T06:06:57;11.50;99.90
64012;DHT22;50211;52.768;12.124;2022-12-31T06:09:23;11.50;99.90
64012;DHT22;50211;52.768;12.124;2022-12-31T06:11:48;11.50;99.90
64012;DHT22;50211;52.768;12.124;2022-12-31T06:14:14;11.50;99.90
64012;DHT22;50211;52.768;12.124;2022-12-31T06:16:40;11.40;99.90
64012;DHT22;50211;52.768;12.124;2022-12-31T06:19:05;11.40;99.90
64012;DHT22;50211;52.768;12.124;2022-12-31T06:21:31;11.40;99.90
64012;DHT22;50211;52.768;12.124;2022-12-31T06:23:57;11.40;99.90
64012;DHT22;50211;52.768;12.124;2022-12-31T06:26:24;11.30;99.90
64012;DHT22;50211;52.768;12.124;2022-12-31T06:28:49;11.40;99.90
64012;DHT22;50211;52.768;12.124;2022-12-31T06:31:15;11.30;99.90
64012;DHT22;50211;52.768;12.124;2022-12-31T06:33:41;11.30;99.90
64012;DHT22;50211;52.768;12.124;2022-12-31T06:36:10;11.30;99.90
64012;DHT22;50211;52.768;12.124;2022-12-31T06:38:37;11.30;99.90
64012;DHT22;50211;52.768;12.124;2022-12-31T06:41:04;11.30;99.90
64012;DHT22;50211;52.768;12.124;2022-12-31T06:43:30;11.20;99.90
64012;DHT22;50211;52.768;12.124;2022-12-31T06:45:59;11.20;99.90
64012;DHT22;50211;52.768;12.124;2022-12-31T06:48:25;11.20;99.90
64012;DHT22;50211;52.768;12.124;2022-12-31T06:50:50;11.20;99.90
64012;DHT22;50211;52.768;12.124;2022-12-31T06:53:16;11.20;99.90
64012;DHT22;50211;52.768;12.124;2022-12-31T06:55:41;11.20;99.90
64012;DHT22;50211;52.768;12.124;2022-12-31T06:58:11;11.20;99.90
64012;DHT22;50211;52.768;12.124;2022-12-31T07:00:44;11.20;99.90
64012;DHT22;50211;52.768;12.124;2022-12-31T07:03:42;11.10;99.90
64012;DHT22;50211;52.768;12.124;2022-12-31T07:06:14;11.10;99.90
64012;DHT22;50211;52.768;12.124;2022-12-31T07:08:49;11.00;99.90
64012;DHT22;50211;52.768;12.124;2022-12-31T07:11:42;11.10;99.90
64012;DHT22;50211;52.768;12.124;2022-12-31T07:14:24;11.10;99.90
64012;DHT22;50211;52.768;12.124;2022-12-31T07:21:58;11.00;99.90
64012;DHT22;50211;52.768;12.124;2022-12-31T07:24:25;11.00;99.90
64012;DHT22;50211;52.768;12.124;2022-12-31T07:27:16;11.00;99.90
64012;DHT22;50211;52.768;12.124;2022-12-31T07:32:40;10.90;99.90
64012;DHT22;50211;52.768;12.124;2022-12-31T07:35:28;10.90;99.90
64012;DHT22;50211;52.768;12.124;2022-12-31T07:44:00;10.90;99.90
64012;DHT22;50211;52.768;12.124;2022-12-31T07:46:56;10.90;99.90
64012;DHT22;50211;52.768;12.124;2022-12-31T07:49:23;10.90;99.90
64012;DHT22;50211;52.768;12.124;2022-12-31T07:51:49;11.00;99.90
64012;DHT22;50211;52.768;12.124;2022-12-31T07:54:15;11.00;99.90
64012;DHT22;50211;52.768;12.124;2022-12-31T07:56:41;11.00;99.90
64012;DHT22;50211;52.768;12.124;2022-12-31T07:59:30;11.00;99.90
64012;DHT22;50211;52.768;12.124;2022-12-31T08:02:09;11.00;99.90
64012;DHT22;50211;52.768;12.124;2022-12-31T08:04:53;11.00;99.90
64012;DHT22;50211;52.768;12.124;2022-12-31T08:07:47;11.00;99.90
64012;DHT22;50211;52.768;12.124;2022-12-31T08:10:37;11.10;99.90
64012;DHT22;50211;52.768;12.124;2022-12-31T08:13:09;11.10;99.90
64012;DHT22;50211;52.768;12.124;2022-12-31T08:15:37;11.10;99.90
64012;DHT22;50211;52.768;12.124;2022-12-31T08:18:02;11.10;99.90
64012;DHT22;50211;52.768;12.124;2022-12-31T08:20:29;11.10;99.90
64012;DHT22;50211;52.768;12.124;2022-12-31T08:23:04;11.10;99.90
64012;DHT22;50211;52.768;12.124;2022-12-31T08:25:56;11.10;99.90
64012;DHT22;50211;52.768;12.124;2022-12-31T08:31:04;11.10;99.90
64012;DHT22;50211;52.768;12.124;2022-12-31T08:34:06;11.10;99.90
64012;DHT22;50211;52.768;12.124;2022-12-31T08:48:08;11.20;99.90
64012;DHT22;50211;52.768;12.124;2022-12-31T08:50:36;11.30;99.90
64012;DHT22;50211;52.768;12.124;2022-12-31T08:53:02;11.30;99.90
64012;DHT22;50211;52.768;12.124;2022-12-31T08:55:28;11.30;99.90
64012;DHT22;50211;52.768;12.124;2022-12-31T09:00:40;11.30;99.90
64012;DHT22;50211;52.768;12.124;2022-12-31T09:03:28;11.30;99.90
64012;DHT22;50211;52.768;12.124;2022-12-31T09:06:19;11.20;99.90
64012;DHT22;50211;52.768;12.124;2022-12-31T09:08:50;11.30;99.90
64012;DHT22;50211;52.768;12.124;2022-12-31T09:11:19;11.30;99.90
64012;DHT22;50211;52.768;12.124;2022-12-31T09:14:11;11.30;99.90
64012;DHT22;50211;52.768;12.124;2022-12-31T09:17:03;11.30;99.90
64012;DHT22;50211;52.768;12.124;2022-12-31T09:19:33;11.30;99.90
64012;DHT22;50211;52.768;12.124;2022-12-31T09:21:58;11.40;99.90
64012;DHT22;50211;52.768;12.124;2022-12-31T09:24:24;11.30;99.90
64012;DHT22;50211;52.768;12.124;2022-12-31T09:35:29;11.40;99.90
64012;DHT22;50211;52.768;12.124;2022-12-31T09:38:06;11.50;99.90
64012;DHT22;50211;52.768;12.124;2022-12-31T09:47:06;11.40;99.90
64012;DHT22;50211;52.768;12.124;2022-12-31T09:53:00;11.50;99.90
64012;DHT22;50211;52.768;12.124;2022-12-31T09:55:51;11.40;99.90
64012;DHT22;50211;52.768;12.124;2022-12-31T10:01:43;11.40;99.90
64012;DHT22;50211;52.768;12.124;2022-12-31T10:24:48;11.70;99.90
64012;DHT22;50211;52.768;12.124;2022-12-31T10:27:37;11.60;99.90
64012;DHT22;50211;52.768;12.124;2022-12-31T10:30:17;11.60;99.90
64012;DHT22;50211;52.768;12.124;2022-12-31T10:32:44;11.60;99.90
64012;DHT22;50211;52.768;12.124;2022-12-31T10:38:10;11.60;99.90
64012;DHT22;50211;52.768;12.124;2022-12-31T10:57:34;11.80;99.90
64012;DHT22;50211;52.768;12.124;2022-12-31T11:00:13;11.80;99.90
64012;DHT22;50211;52.768;12.124;2022-12-31T11:32:29;12.60;99.90
64012;DHT22;50211;52.768;12.124;2022-12-31T11:35:07;12.70;99.90
64012;DHT22;50211;52.768;12.124;2022-12-31T11:43:38;12.90;99.90
64012;DHT22;50211;52.768;12.124;2022-12-31T11:46:39;13.00;99.90
64012;DHT22;50211;52.768;12.124;2022-12-31T11:49:20;13.00;99.90
64012;DHT22;50211;52.768;12.124;2022-12-31T11:52:16;13.10;99.90
64012;DHT22;50211;52.768;12.124;2022-12-31T11:57:36;13.30;99.90
64012;DHT22;50211;52.768;12.124;2022-12-31T12:00:23;13.30;99.90
64012;DHT22;50211;52.768;12.124;2022-12-31T12:02:59;13.30;99.90
64012;DHT22;50211;52.768;12.124;2022-12-31T12:05:26;13.30;99.90
64012;DHT22;50211;52.768;12.124;2022-12-31T12:07:52;13.40;99.90
64012;DHT22;50211;52.768;12.124;2022-12-31T12:10:25;13.30;99.90
64012;DHT22;50211;52.768;12.124;2022-12-31T12:12:52;13.40;99.90
64012;DHT22;50211;52.768;12.124;2022-12-31T12:15:26;13.50;99.90
64012;DHT22;50211;52.768;12.124;2022-12-31T12:17:55;13.50;99.90
64012;DHT22;50211;52.768;12.124;2022-12-31T12:20:31;13.60;99.90
64012;DHT22;50211;52.768;12.124;2022-12-31T12:23:01;13.70;99.90
64012;DHT22;50211;52.768;12.124;2022-12-31T12:25:39;13.80;99.90
64012;DHT22;50211;52.768;12.124;2022-12-31T12:30:44;13.80;99.90
64012;DHT22;50211;52.768;12.124;2022-12-31T12:33:15;13.90;99.90
64012;DHT22;50211;52.768;12.124;2022-12-31T12:35:42;13.70;99.90
64012;DHT22;50211;52.768;12.124;2022-12-31T12:38:22;13.40;99.90
64012;DHT22;50211;52.768;12.124;2022-12-31T12:41:00;13.30;99.90
64012;DHT22;50211;52.768;12.124;2022-12-31T12:43:29;13.30;99.90
64012;DHT22;50211;52.768;12.124;2022-12-31T12:45:58;13.40;99.90
64012;DHT22;50211;52.768;12.124;2022-12-31T12:48:39;13.50;99.90
64012;DHT22;50211;52.768;12.124;2022-12-31T12:51:47;13.70;99.90
64012;DHT22;50211;52.768;12.124;2022-12-31T12:54:54;13.80;99.90
64012;DHT22;50211;52.768;12.124;2022-12-31T12:57:33;13.80;99.90
64012;DHT22;50211;52.768;12.124;2022-12-31T13:00:19;13.70;99.90
64012;DHT22;50211;52.768;12.124;2022-12-31T13:03:05;13.40;99.90
64012;DHT22;50211;52.768;12.124;2022-12-31T13:21:59;13.00;99.90
64012;DHT22;50211;52.768;12.124;2022-12-31T13:24:43;13.00;99.90
64012;DHT22;50211;52.768;12.124;2022-12-31T13:29:45;13.00;99.90
64012;DHT22;50211;52.768;12.124;2022-12-31T13:32:17;13.00;99.90
64012;DHT22;50211;52.768;12.124;2022-12-31T13:34:48;13.00;99.90
64012;DHT22;50211;52.768;12.124;2022-12-31T13:37:24;13.00;99.90
64012;DHT22;50211;52.768;12.124;2022-12-31T13:39:58;13.00;99.90
64012;DHT22;50211;52.768;12.124;2022-12-31T13:42:42;13.00;99.90
64012;DHT22;50211;52.768;12.124;2022-12-31T13:45:17;12.90;99.90
64012;DHT22;50211;52.768;12.124;2022-12-31T13:47:52;12.90;99.90
64012;DHT22;50211;52.768;12.124;2022-12-31T13:53:15;13.00;99.90
64012;DHT22;50211;52.768;12.124;2022-12-31T13:55:50;13.10;99.90
64012;DHT22;50211;52.768;12.124;2022-12-31T13:58:27;13.20;99.90
64012;DHT22;50211;52.768;12.124;2022-12-31T14:01:02;13.30;99.90
64012;DHT22;50211;52.768;12.124;2022-12-31T14:06:18;13.30;99.90
64012;DHT22;50211;52.768;12.124;2022-12-31T14:08:46;13.40;99.90
64012;DHT22;50211;52.768;12.124;2022-12-31T14:11:41;13.40;99.90
64012;DHT22;50211;52.768;12.124;2022-12-31T14:17:18;13.40;99.90
64012;DHT22;50211;52.768;12.124;2022-12-31T14:23:08;13.50;99.90
64012;DHT22;50211;52.768;12.124;2022-12-31T14:25:40;13.50;99.90
64012;DHT22;50211;52.768;12.124;2022-12-31T14:28:20;13.50;99.90
64012;DHT22;50211;52.768;12.124;2022-12-31T14:30:50;13.60;99.90
64012;DHT22;50211;52.768;12.124;2022-12-31T14:33:31;13.60;99.90
64012;DHT22;50211;52.768;12.124;2022-12-31T14:39:40;13.50;99.90
64012;DHT22;50211;52.768;12.124;2022-12-31T14:45:35;13.60;99.90
64012;DHT22;50211;52.768;12.124;2022-12-31T14:51:03;13.50;99.90
64012;DHT22;50211;52.768;12.124;2022-12-31T14:53:29;13.50;99.90
64012;DHT22;50211;52.768;12.124;2022-12-31T14:56:04;13.50;99.90
64012;DHT22;50211;52.768;12.124;2022-12-31T14:58:34;13.40;99.90
64012;DHT22;50211;52.768;12.124;2022-12-31T15:01:17;13.40;99.90
64012;DHT22;50211;52.768;12.124;2022-12-31T15:03:46;13.50;99.90
64012;DHT22;50211;52.768;12.124;2022-12-31T15:14:44;13.60;99.90
64012;DHT22;50211;52.768;12.124;2022-12-31T15:23:00;13.60;99.90
64012;DHT22;50211;52.768;12.124;2022-12-31T15:25:29;13.70;99.90
64012;DHT22;50211;52.768;12.124;2022-12-31T15:27:57;13.70;99.90
64012;DHT22;50211;52.768;12.124;2022-12-31T15:30:42;13.90;99.90
64012;DHT22;50211;52.768;12.124;2022-12-31T15:33:17;13.80;99.90
64012;DHT22;50211;52.768;12.124;2022-12-31T15:35:50;13.90;99.90
64012;DHT22;50211;52.768;12.124;2022-12-31T15:38:34;13.90;99.90
64012;DHT22;50211;52.768;12.124;2022-12-31T15:41:11;14.10;99.90
64012;DHT22;50211;52.768;12.124;2022-12-31T15:43:46;14.20;99.90
64012;DHT22;50211;52.768;12.124;2022-12-31T15:46:20;14.30;99.90
64012;DHT22;50211;52.768;12.124;2022-12-31T15:48:50;14.30;99.90
64012;DHT22;50211;52.768;12.124;2022-12-31T15:51:21;14.40;99.90
64012;DHT22;50211;52.768;12.124;2022-12-31T15:53:50;14.50;99.90
64012;DHT22;50211;52.768;12.124;2022-12-31T15:56:32;14.60;99.90
64012;DHT22;50211;52.768;12.124;2022-12-31T15:59:00;14.50;99.90
64012;DHT22;50211;52.768;12.124;2022-12-31T16:01:29;14.40;99.90
64012;DHT22;50211;52.768;12.124;2022-12-31T16:04:02;14.50;99.90
64012;DHT22;50211;52.768;12.124;2022-12-31T16:06:33;14.50;99.90
64012;DHT22;50211;52.768;12.124;2022-12-31T16:09:00;14.60;99.90
64012;DHT22;50211;52.768;12.124;2022-12-31T16:11:26;14.70;99.90
64012;DHT22;50211;52.768;12.124;2022-12-31T16:13:56;14.80;99.90
64012;DHT22;50211;52.768;12.124;2022-12-31T16:16:30;14.70;99.90
64012;DHT22;50211;52.768;12.124;2022-12-31T16:18:56;14.80;99.90
64012;DHT22;50211;52.768;12.124;2022-12-31T16:21:31;14.90;99.90
64012;DHT22;50211;52.768;12.124;2022-12-31T16:24:17;14.90;99.90
64012;DHT22;50211;52.768;12.124;2022-12-31T16:26:48;14.90;99.90
64012;DHT22;50211;52.768;12.124;2022-12-31T16:29:15;15.10;99.90
64012;DHT22;50211;52.768;12.124;2022-12-31T16:31:45;15.10;99.90
64012;DHT22;50211;52.768;12.124;2022-12-31T16:34:14;15.10;99.90
64012;DHT22;50211;52.768;12.124;2022-12-31T16:36:40;15.10;99.90
64012;DHT22;50211;52.768;12.124;2022-12-31T16:39:32;15.20;99.90
64012;DHT22;50211;52.768;12.124;2022-12-31T16:42:15;15.30;99.90
64012;DHT22;50211;52.768;12.124;2022-12-31T16:44:42;15.40;99.90
64012;DHT22;50211;52.768;12.124;2022-12-31T16:47:12;15.40;99.90
64012;DHT22;50211;52.768;12.124;2022-12-31T16:49:40;15.50;99.90
64012;DHT22;50211;52.768;12.124;2022-12-31T16:52:31;15.50;99.90
64012;DHT22;50211;52.768;12.124;2022-12-31T16:54:58;15.60;99.90
64012;DHT22;50211;52.768;12.124;2022-12-31T16:57:27;15.60;99.90
64012;DHT22;50211;52.768;12.124;2022-12-31T17:00:00;15.60;99.90
64012;DHT22;50211;52.768;12.124;2022-12-31T17:02:33;15.60;99.90
64012;DHT22;50211;52.768;12.124;2022-12-31T17:05:01;15.60;99.90
64012;DHT22;50211;52.768;12.124;2022-12-31T17:12:35;15.60;99.90
64012;DHT22;50211;52.768;12.124;2022-12-31T17:15:05;15.60;99.90
64012;DHT22;50211;52.768;12.124;2022-12-31T17:17:33;15.60;99.90
64012;DHT22;50211;52.768;12.124;2022-12-31T17:20:03;15.60;99.90
64012;DHT22;50211;52.768;12.124;2022-12-31T17:22:33;15.50;99.90
64012;DHT22;50211;52.768;12.124;2022-12-31T17:25:17;15.60;99.90
64012;DHT22;50211;52.768;12.124;2022-12-31T17:27:56;15.40;99.90
64012;DHT22;50211;52.768;12.124;2022-12-31T17:35:33;15.20;99.90
64012;DHT22;50211;52.768;12.124;2022-12-31T17:43:17;15.10;99.90
64012;DHT22;50211;52.768;12.124;2022-12-31T17:45:45;15.10;99.90
64012;DHT22;50211;52.768;12.124;2022-12-31T17:48:12;15.10;99.90
64012;DHT22;50211;52.768;12.124;2022-12-31T17:50:59;15.20;99.90
64012;DHT22;50211;52.768;12.124;2022-12-31T17:53:25;15.10;99.90
64012;DHT22;50211;52.768;12.124;2022-12-31T17:55:53;15.10;99.90
64012;DHT22;50211;52.768;12.124;2022-12-31T17:58:50;15.10;99.90
64012;DHT22;50211;52.768;12.124;2022-12-31T18:01:21;15.10;99.90
64012;DHT22;50211;52.768;12.124;2022-12-31T18:03:47;15.10;99.90
64012;DHT22;50211;52.768;12.124;2022-12-31T18:06:14;15.20;99.90
64012;DHT22;50211;52.768;12.124;2022-12-31T18:08:40;15.10;99.90
64012;DHT22;50211;52.768;12.124;2022-12-31T18:11:06;15.10;99.90
64012;DHT22;50211;52.768;12.124;2022-12-31T18:13:32;15.10;99.90
64012;DHT22;50211;52.768;12.124;2022-12-31T18:15:58;15.00;99.90
64012;DHT22;50211;52.768;12.124;2022-12-31T18:18:26;15.00;99.90
64012;DHT22;50211;52.768;12.124;2022-12-31T18:20:56;14.90;99.90
64012;DHT22;50211;52.768;12.124;2022-12-31T18:23:26;14.90;99.90
64012;DHT22;50211;52.768;12.124;2022-12-31T18:25:52;14.80;99.90
64012;DHT22;50211;52.768;12.124;2022-12-31T18:28:18;14.80;99.90
64012;DHT22;50211;52.768;12.124;2022-12-31T18:30:45;14.70;99.90
64012;DHT22;50211;52.768;12.124;2022-12-31T18:33:12;14.80;99.90
64012;DHT22;50211;52.768;12.124;2022-12-31T18:35:38;14.70;99.90
64012;DHT22;50211;52.768;12.124;2022-12-31T18:38:12;14.70;99.90
64012;DHT22;50211;52.768;12.124;2022-12-31T18:40:38;14.70;99.90
64012;DHT22;50211;52.768;12.124;2022-12-31T18:43:13;14.70;99.90
64012;DHT22;50211;52.768;12.124;2022-12-31T18:45:39;14.60;99.90
64012;DHT22;50211;52.768;12.124;2022-12-31T18:48:05;14.60;99.90
64012;DHT22;50211;52.768;12.124;2022-12-31T18:50:30;14.50;99.90
64012;DHT22;50211;52.768;12.124;2022-12-31T18:52:56;14.50;99.90
64012;DHT22;50211;52.768;12.124;2022-12-31T18:55:43;14.50;99.90
64012;DHT22;50211;52.768;12.124;2022-12-31T18:58:10;14.40;99.90
64012;DHT22;50211;52.768;12.124;2022-12-31T19:00:36;14.30;99.90
64012;DHT22;50211;52.768;12.124;2022-12-31T19:03:02;14.40;99.90
64012;DHT22;50211;52.768;12.124;2022-12-31T19:05:31;14.50;99.90
64012;DHT22;50211;52.768;12.124;2022-12-31T19:07:57;14.50;99.90
64012;DHT22;50211;52.768;12.124;2022-12-31T19:10:24;14.50;99.90
64012;DHT22;50211;52.768;12.124;2022-12-31T19:12:51;14.60;99.90
64012;DHT22;50211;52.768;12.124;2022-12-31T19:15:38;14.50;99.90
64012;DHT22;50211;52.768;12.124;2022-12-31T19:18:05;14.50;99.90
64012;DHT22;50211;52.768;12.124;2022-12-31T19:20:30;14.50;99.90
64012;DHT22;50211;52.768;12.124;2022-12-31T19:22:56;14.50;99.90